Time;durP1;ratioP1;P1;durP2;ratioP2;P2;SDS_P1;SDS_P2;PMS_P1;PMS_P2;Temp;Humidity;BMP_temperature;BMP_pressure;BME280_temperature;BME280_humidity;BME280_pressure;Samples;Min_cycle;Max_cycle;Signal;HPM_P1;HPM_P2
2023/01/10 00:02:25;;;;;;;0.10;0.10;;;;;;;6.29;100.00;99337.19;7387688;19;20022;-81
2023/01/10 00:04:51;;;;;;;1.58;0.57;;;;;;;6.12;100.00;99345.00;7393141;19;20022;-82
2023/01/10 00:07:17;;;;;;;1.10;1.05;;;;;;;6.02;100.00;99354.50;7391954;19;20100;-82
2023/01/10 00:09:43;;;;;;;3.03;0.45;;;;;;;5.94;100.00;99367.84;7395052;19;20010;-82
2023/01/10 00:14:54;;;;;;;0.15;0.15;;;;;;;5.99;100.00;99378.31;7388345;19;20010;-83
2023/01/10 00:17:20;;;;;;;0.85;0.35;;;;;;;5.87;100.00;99370.88;7397156;19;20051;-81
2023/01/10 00:19:46;;;;;;;0.17;0.13;;;;;;;5.99;100.00;99364.47;7397172;19;20029;-81
2023/01/10 00:28:18;;;;;;;0.20;0.20;;;;;;;5.11;100.00;99358.81;7419061;19;20377;-78
2023/01/10 00:31:00;;;;;;;0.10;0.08;;;;;;;5.25;100.00;99361.03;7423511;19;20369;-80
2023/01/10 00:33:27;;;;;;;0.10;0.10;;;;;;;5.21;100.00;99354.91;7423222;19;20022;-81
2023/01/10 00:35:53;;;;;;;6.13;0.68;;;;;;;5.22;100.00;99346.16;7421222;19;20010;-81
2023/01/10 00:38:19;;;;;;;0.28;0.22;;;;;;;5.10;100.00;99349.78;7426769;19;20014;-80
2023/01/10 00:40:45;;;;;;;0.28;0.28;;;;;;;5.03;100.00;99352.00;7421131;19;20035;-80
2023/01/10 00:45:56;;;;;;;0.55;0.20;;;;;;;5.22;100.00;99350.91;7423813;19;20357;-80
2023/01/10 00:48:23;;;;;;;0.10;0.10;;;;;;;5.14;100.00;99338.59;7423947;19;20320;-80
2023/01/10 00:50:49;;;;;;;0.10;0.10;;;;;;;5.14;100.00;99338.59;7421093;19;20014;-80
2023/01/10 00:53:15;;;;;;;6.43;0.43;;;;;;;4.86;100.00;99340.41;7418455;19;20022;-80
2023/01/10 00:55:42;;;;;;;0.10;0.10;;;;;;;4.90;100.00;99323.72;7422372;19;20019;-79
2023/01/10 00:58:10;;;;;;;0.57;0.20;;;;;;;4.84;100.00;99331.03;7425518;19;20373;-80
2023/01/10 01:00:37;;;;;;;0.20;0.20;;;;;;;4.89;100.00;99341.50;7420421;19;20074;-79
2023/01/10 01:03:04;;;;;;;1.50;0.70;;;;;;;4.92;100.00;99337.81;7421477;19;20390;-80
2023/01/10 01:05:31;;;;;;;0.10;0.10;;;;;;;5.59;100.00;99340.81;7423491;19;20039;-80
2023/01/10 01:07:57;;;;;;;0.95;0.73;;;;;;;4.58;100.00;99350.47;7422890;19;20024;-79
2023/01/10 01:10:26;;;;;;;25.65;1.33;;;;;;;4.29;100.00;99336.13;7423313;19;20030;-80
2023/01/10 01:12:53;;;;;;;16.60;1.17;;;;;;;4.59;100.00;99345.72;7419112;19;20086;-79
2023/01/10 01:15:20;;;;;;;0.85;0.57;;;;;;;4.60;100.00;99342.53;7420657;19;20365;-80
2023/01/10 01:17:47;;;;;;;1.60;0.85;;;;;;;4.75;100.00;99337.25;7422793;19;20022;-79
2023/01/10 01:20:14;;;;;;;0.40;0.38;;;;;;;4.66;100.00;99336.44;7421127;19;20201;-79
2023/01/10 01:22:40;;;;;;;1.10;0.20;;;;;;;4.23;100.00;99334.38;7422467;19;20028;-79
2023/01/10 01:25:07;;;;;;;2.85;0.55;;;;;;;4.08;100.00;99336.06;7422464;19;20050;-80
2023/01/10 01:27:33;;;;;;;0.63;0.63;;;;;;;3.93;100.00;99330.25;7419112;19;20035;-80
2023/01/10 01:30:00;;;;;;;0.40;0.40;;;;;;;3.69;100.00;99331.81;7419650;19;20018;-80
2023/01/10 01:32:27;;;;;;;0.10;0.10;;;;;;;3.63;100.00;99328.84;7420709;19;20026;-80
2023/01/10 01:34:53;;;;;;;3.40;0.65;;;;;;;3.61;100.00;99336.00;7419441;19;20013;-80
2023/01/10 01:37:19;;;;;;;0.10;0.10;;;;;;;4.59;100.00;99342.97;7414125;19;20006;-80
2023/01/10 01:39:45;;;;;;;0.10;0.10;;;;;;;4.99;100.00;99343.09;7391329;19;20035;-80
2023/01/10 01:42:32;;;;;;;1.00;0.30;;;;;;;5.03;100.00;99338.22;7393750;19;20014;-79
2023/01/10 01:45:18;;;;;;;0.22;0.22;;;;;;;4.81;100.00;99329.19;7391002;19;20018;-80
2023/01/10 01:47:49;;;;;;;0.77;0.77;;;;;;;4.84;100.00;99325.53;7389416;19;20448;-80
2023/01/10 01:50:27;;;;;;;14.80;0.57;;;;;;;4.85;100.00;99322.31;7392488;19;20029;-79
2023/01/10 01:52:57;;;;;;;0.50;0.38;;;;;;;4.80;100.00;99330.41;7389069;19;20014;-80
2023/01/10 01:55:26;;;;;;;0.10;0.10;;;;;;;4.84;100.00;99337.34;7396758;19;20014;-80
2023/01/10 01:57:57;;;;;;;0.30;0.30;;;;;;;4.96;100.00;99333.72;7394317;19;20388;-79
2023/01/10 02:00:23;;;;;;;0.20;0.20;;;;;;;4.22;100.00;99336.34;7391438;19;20019;-80
2023/01/10 02:02:53;;;;;;;0.13;0.13;;;;;;;5.10;100.00;99326.91;7389959;19;20011;-80
2023/01/10 02:05:21;;;;;;;0.57;0.53;;;;;;;4.53;100.00;99328.19;7391463;19;20035;-79
2023/01/10 02:07:53;;;;;;;0.43;0.43;;;;;;;4.69;100.00;99338.28;7392446;19;20120;-79
2023/01/10 02:10:19;;;;;;;;;;;;;;;4.47;100.00;99341.78;7391772;19;20379;-80
2023/01/10 02:12:49;;;;;;;11.57;0.52;;;;;;;4.43;100.00;99352.19;7393890;19;19915;-80
2023/01/10 02:15:16;;;;;;;0.70;0.30;;;;;;;4.43;100.00;99343.13;7391146;19;20044;-80
2023/01/10 02:17:45;;;;;;;2.15;1.27;;;;;;;4.53;100.00;99345.53;7390362;19;20014;-80
2023/01/10 02:20:12;;;;;;;0.55;0.52;;;;;;;4.57;100.00;99339.88;7391931;19;20015;-80
2023/01/10 02:23:12;;;;;;;0.15;0.15;;;;;;;4.71;100.00;99331.09;7391146;19;20046;-81
2023/01/10 02:26:15;;;;;;;0.10;0.10;;;;;;;4.81;100.00;99343.00;7389880;19;20491;-80
2023/01/10 02:29:28;;;;;;;0.25;0.25;;;;;;;5.33;100.00;99340.22;7393784;19;20074;-81
2023/01/10 02:32:06;;;;;;;0.20;0.20;;;;;;;5.07;100.00;99322.28;7386419;19;20019;-81
2023/01/10 02:35:01;;;;;;;3.60;1.02;;;;;;;5.36;100.00;99300.69;7390210;19;20014;-81
2023/01/10 02:37:35;;;;;;;1.13;1.10;;;;;;;5.12;100.00;99297.66;7390902;19;20011;-81
2023/01/10 02:40:13;;;;;;;1.00;0.57;;;;;;;5.12;100.00;99291.34;7389492;19;20050;-81
2023/01/10 02:43:14;;;;;;;0.10;0.10;;;;;;;5.16;100.00;99297.50;7387440;19;20022;-81
2023/01/10 02:45:58;;;;;;;0.35;0.35;;;;;;;6.90;100.00;99298.16;7388203;19;20014;-81
2023/01/10 02:48:24;;;;;;;9.68;0.75;;;;;;;7.11;100.00;99308.25;7390827;19;20019;-81
2023/01/10 02:51:01;;;;;;;0.30;0.30;;;;;;;7.13;100.00;99300.25;7386763;19;20018;-81
2023/01/10 02:53:36;;;;;;;0.30;0.20;;;;;;;5.79;100.00;99306.06;7387219;19;20802;-81
2023/01/10 02:56:08;;;;;;;6.03;1.85;;;;;;;6.22;100.00;99299.53;7389192;19;20020;-81
2023/01/10 02:58:43;;;;;;;0.13;0.13;;;;;;;5.52;100.00;99303.22;7392838;19;20018;-81
2023/01/10 03:01:55;;;;;;;0.80;0.77;;;;;;;5.37;100.00;99297.44;7387346;19;20191;-81
2023/01/10 03:04:46;;;;;;;14.63;0.57;;;;;;;6.51;100.00;99275.00;7388863;19;20018;-81
2023/01/10 03:07:39;;;;;;;0.10;0.00;;;;;;;6.57;100.00;99286.19;7385894;19;20018;-81
2023/01/10 03:10:13;;;;;;;0.10;0.10;;;;;;;7.12;100.00;99275.78;7387091;19;20037;-81
2023/01/10 03:13:01;;;;;;;3.60;0.65;;;;;;;7.05;100.00;99268.59;7392747;19;20170;-81
2023/01/10 03:15:31;;;;;;;2.42;0.82;;;;;;;6.87;100.00;99257.56;7389383;19;20492;-80
2023/01/10 03:18:02;;;;;;;0.10;0.10;;;;;;;6.69;100.00;99263.88;7389720;19;20025;-81
2023/01/10 03:20:33;;;;;;;2.65;2.10;;;;;;;5.78;100.00;99265.06;7387446;19;20049;-81
2023/01/10 03:23:01;;;;;;;0.60;0.60;;;;;;;5.65;100.00;99278.97;7385163;19;20021;-81
2023/01/10 03:25:33;;;;;;;1.42;0.73;;;;;;;5.63;100.00;99281.44;7386329;19;20081;-81
2023/01/10 03:28:02;;;;;;;;;;;;;;;5.63;100.00;99284.19;7390478;19;20014;-81
2023/01/10 03:30:43;;;;;;;15.98;2.50;;;;;;;5.68;100.00;99277.31;7388448;19;19931;-81
2023/01/10 03:33:12;;;;;;;0.28;0.28;;;;;;;5.66;100.00;99283.28;7388976;19;20035;-81
2023/01/10 03:35:38;;;;;;;4.25;0.55;;;;;;;5.72;100.00;99275.16;7387232;19;20019;-81
2023/01/10 03:38:14;;;;;;;3.03;0.98;;;;;;;5.82;100.00;99266.47;7389877;19;20357;-80
2023/01/10 03:41:08;;;;;;;0.10;0.10;;;;;;;6.61;100.00;99259.13;7386111;19;20028;-81
2023/01/10 03:46:40;;;;;;;0.45;0.45;;;;;;;7.79;100.00;99261.50;7384674;19;20022;-80
2023/01/10 03:49:09;;;;;;;5.30;1.65;;;;;;;7.70;100.00;99250.44;7391441;19;20528;-80
2023/01/10 03:51:37;;;;;;;0.10;0.10;;;;;;;7.70;100.00;99233.81;7392539;19;20010;-81
2023/01/10 03:54:04;;;;;;;9.27;1.55;;;;;;;7.58;100.00;99236.34;7385958;19;20444;-81
2023/01/10 03:56:30;;;;;;;0.10;0.10;;;;;;;6.37;100.00;99234.09;7389152;19;20030;-80
2023/01/10 03:58:57;;;;;;;13.15;0.55;;;;;;;6.68;100.00;99242.22;7391156;19;20042;-81
2023/01/10 04:01:23;;;;;;;0.70;0.17;;;;;;;7.97;100.00;99230.91;7386949;19;20039;-81
2023/01/10 04:03:49;;;;;;;1.20;0.90;;;;;;;7.64;100.00;99228.91;7383450;19;20023;-81
2023/01/10 04:06:16;;;;;;;5.53;0.65;;;;;;;8.03;100.00;99231.78;7384507;19;20687;-81
2023/01/10 04:08:42;;;;;;;0.28;0.17;;;;;;;8.06;100.00;99226.03;7390289;19;20633;-81
2023/01/10 04:11:08;;;;;;;0.45;0.45;;;;;;;7.85;100.00;99216.03;7384990;19;20627;-80
2023/01/10 04:13:35;;;;;;;27.45;1.25;;;;;;;6.63;100.00;99224.25;7383513;19;20014;-81
2023/01/10 04:16:01;;;;;;;0.10;0.08;;;;;;;6.38;100.00;99218.28;7388974;19;20014;-80
2023/01/10 04:18:27;;;;;;;0.20;0.20;;;;;;;6.93;100.00;99219.69;7388012;19;20105;-81
2023/01/10 04:20:53;;;;;;;0.10;0.10;;;;;;;6.21;100.00;99212.31;7385839;19;20021;-81
2023/01/10 04:23:19;;;;;;;10.43;1.00;;;;;;;5.88;100.00;99211.38;7384631;19;20040;-81
2023/01/10 04:25:46;;;;;;;2.63;0.80;;;;;;;5.87;100.00;99207.06;7384614;19;20516;-81
2023/01/10 04:28:12;;;;;;;0.65;0.47;;;;;;;5.25;100.00;99211.97;7389868;19;20042;-81
2023/01/10 04:30:38;;;;;;;0.65;0.20;;;;;;;5.28;100.00;99220.13;7386685;19;20354;-83
2023/01/10 04:33:06;;;;;;;1.45;0.35;;;;;;;5.63;100.00;99225.44;7387405;19;20070;-81
2023/01/10 04:35:32;;;;;;;6.53;1.75;;;;;;;5.86;100.00;99222.91;7385681;19;20014;-81
2023/01/10 04:37:58;;;;;;;0.50;0.35;;;;;;;6.31;100.00;99218.59;7386578;19;20372;-80
2023/01/10 04:40:24;;;;;;;0.20;0.20;;;;;;;5.46;100.00;99216.66;7386202;19;20516;-81
2023/01/10 04:42:50;;;;;;;5.68;0.47;;;;;;;5.28;100.00;99216.59;7382958;19;20019;-81
2023/01/10 04:45:19;;;;;;;0.10;0.10;;;;;;;5.36;100.00;99212.34;7385374;19;20377;-80
2023/01/10 04:47:51;;;;;;;12.95;1.20;;;;;;;5.16;100.00;99209.97;7385318;19;20022;-81
2023/01/10 04:50:17;;;;;;;0.52;0.52;;;;;;;5.66;100.00;99203.19;7386624;19;20015;-81
2023/01/10 04:52:43;;;;;;;15.93;0.45;;;;;;;5.71;100.00;99204.59;7384293;19;20015;-81
2023/01/10 04:55:10;;;;;;;0.10;0.10;;;;;;;6.49;100.00;99197.25;7383616;19;20018;-81
2023/01/10 04:57:36;;;;;;;0.32;0.32;;;;;;;7.09;100.00;99193.66;7386185;19;20014;-80
2023/01/10 05:00:02;;;;;;;0.17;0.17;;;;;;;8.33;100.00;99189.78;7385641;19;20022;-81
2023/01/10 05:02:29;;;;;;;0.90;0.57;;;;;;;7.31;100.00;99183.88;7389294;19;20022;-81
2023/01/10 05:04:55;;;;;;;0.40;0.20;;;;;;;10.79;100.00;99182.31;7384218;19;20015;-81
2023/01/10 05:07:21;;;;;;;4.95;0.65;;;;;;;8.26;100.00;99178.28;7384643;19;20023;-80
2023/01/10 05:09:47;;;;;;;0.75;0.30;;;;;;;7.93;100.00;99180.38;7385737;19;20015;-81
2023/01/10 05:12:14;;;;;;;2.05;0.30;;;;;;;7.49;100.00;99177.47;7386442;19;20022;-81
2023/01/10 05:14:40;;;;;;;2.20;0.28;;;;;;;7.47;100.00;99158.53;7393616;19;20354;-81
2023/01/10 05:17:06;;;;;;;0.10;0.10;;;;;;;7.93;100.00;99180.38;7391565;19;20066;-80
2023/01/10 05:19:32;;;;;;;1.17;1.08;;;;;;;7.06;100.00;99175.25;7392582;19;20043;-81
2023/01/10 05:21:58;;;;;;;0.10;0.10;;;;;;;6.99;100.00;99170.03;7393905;19;20018;-80
2023/01/10 05:24:24;;;;;;;5.28;1.15;;;;;;;6.90;100.00;99165.31;7391122;19;20038;-80
2023/01/10 05:26:50;;;;;;;7.32;0.70;;;;;;;7.00;100.00;99152.94;7388667;19;20491;-81
2023/01/10 05:29:17;;;;;;;0.28;0.28;;;;;;;7.01;100.00;99146.19;7394353;19;20101;-81
2023/01/10 05:31:43;;;;;;;0.28;0.28;;;;;;;6.37;100.00;99139.31;7392316;19;20014;-80
2023/01/10 05:34:11;;;;;;;0.63;0.52;;;;;;;5.78;100.00;99141.50;7388619;19;20018;-81
2023/01/10 05:36:37;;;;;;;0.32;0.30;;;;;;;5.69;100.00;99141.53;7390434;19;20021;-81
2023/01/10 05:39:04;;;;;;;2.15;0.25;;;;;;;5.53;100.00;99139.03;7397149;19;20018;-81
2023/01/10 05:41:30;;;;;;;0.10;0.10;;;;;;;5.76;100.00;99140.44;7392033;19;20492;-81
2023/01/10 05:43:56;;;;;;;0.25;0.20;;;;;;;5.75;100.00;99139.69;7388511;19;20031;-82
2023/01/10 05:46:22;;;;;;;0.10;0.10;;;;;;;6.11;100.00;99134.16;7393076;19;20126;-82
2023/01/10 05:48:50;;;;;;;3.17;0.65;;;;;;;6.33;100.00;99124.88;7394708;19;20026;-82
2023/01/10 05:51:16;;;;;;;5.05;0.30;;;;;;;6.35;100.00;99127.97;7391454;19;20033;-82
2023/01/10 05:53:42;;;;;;;3.33;0.47;;;;;;;5.70;100.00;99132.00;7391568;19;20014;-81
2023/01/10 05:56:09;;;;;;;1.75;1.10;;;;;;;5.35;100.00;99122.44;7392537;19;20018;-83
2023/01/10 05:58:35;;;;;;;2.10;0.73;;;;;;;5.12;100.00;99125.78;7397809;19;20344;-90
2023/01/10 06:01:01;;;;;;;1.55;0.40;;;;;;;5.11;100.00;99119.47;7393636;19;20016;-82
2023/01/10 06:03:27;;;;;;;5.78;1.35;;;;;;;5.05;100.00;99115.78;7392113;19;20070;-83
2023/01/10 06:05:54;;;;;;;1.00;0.47;;;;;;;5.39;100.00;99103.75;7392428;19;20025;-82
2023/01/10 06:08:21;;;;;;;0.20;0.20;;;;;;;5.39;100.00;99093.47;7393787;19;20102;-82
2023/01/10 06:10:48;;;;;;;0.52;0.52;;;;;;;5.40;100.00;99088.72;7393950;19;20018;-83
2023/01/10 06:13:14;;;;;;;2.00;0.73;;;;;;;5.38;100.00;99093.94;7388106;19;20444;-81
2023/01/10 06:15:40;;;;;;;1.05;0.75;;;;;;;5.69;100.00;99093.78;7390946;19;20019;-81
2023/01/10 06:18:07;;;;;;;1.30;0.38;;;;;;;5.85;100.00;99083.22;7393004;19;20021;-81
2023/01/10 06:20:34;;;;;;;1.08;0.22;;;;;;;5.57;100.00;99084.41;7393213;19;20011;-83
2023/01/10 06:23:03;;;;;;;2.35;1.50;;;;;;;5.92;100.00;99077.38;7392845;19;20018;-84
2023/01/10 06:25:35;;;;;;;0.90;0.55;;;;;;;6.67;100.00;99058.84;7392531;19;20127;-82
2023/01/10 06:28:02;;;;;;;0.10;0.08;;;;;;;5.56;100.00;99040.69;7397757;19;20438;-83
2023/01/10 06:30:29;;;;;;;3.17;0.60;;;;;;;6.23;100.00;99048.75;7391867;19;20017;-83
2023/01/10 06:33:02;;;;;;;1.73;0.20;;;;;;;6.46;100.00;99034.22;7392814;19;20011;-84
2023/01/10 06:35:29;;;;;;;8.35;0.50;;;;;;;6.96;100.00;99022.25;7392858;19;20014;-83
2023/01/10 06:37:55;;;;;;;4.97;0.52;;;;;;;7.63;100.00;99016.81;7395009;19;20090;-84
2023/01/10 06:40:22;;;;;;;0.65;0.65;;;;;;;8.15;100.00;99009.66;7392741;19;20014;-83
2023/01/10 06:42:49;;;;;;;1.55;0.32;;;;;;;6.55;100.00;99006.50;7392638;19;20370;-84
2023/01/10 06:45:15;;;;;;;4.03;1.42;;;;;;;6.64;100.00;99003.69;7392116;19;20034;-82
2023/01/10 06:47:42;;;;;;;0.75;0.40;;;;;;;8.00;100.00;98994.25;7390547;19;20739;-83
2023/01/10 06:50:09;;;;;;;1.33;0.47;;;;;;;9.92;100.00;98991.72;7390888;19;20018;-83
2023/01/10 06:52:35;;;;;;;0.20;0.10;;;;;;;9.94;100.00;98972.53;7390472;19;20045;-83
2023/01/10 06:55:01;;;;;;;0.10;0.10;;;;;;;8.39;100.00;98965.16;7391349;19;20010;-81
2023/01/10 06:57:27;;;;;;;0.10;0.10;;;;;;;7.46;100.00;98948.47;7392934;19;20023;-81
2023/01/10 06:59:53;;;;;;;11.73;0.70;;;;;;;7.63;100.00;98949.53;7389057;19;20025;-82
2023/01/10 07:02:20;;;;;;;0.38;0.38;;;;;;;6.92;100.00;98935.88;7390547;19;20066;-82
2023/01/10 07:04:48;;;;;;;6.03;0.60;;;;;;;6.73;100.00;98938.03;7390931;19;20026;-82
2023/01/10 07:07:14;;;;;;;9.93;0.73;;;;;;;6.61;100.00;98932.72;7386753;19;20416;-81
2023/01/10 07:09:40;;;;;;;0.10;0.00;;;;;;;6.68;100.00;98915.75;7389496;19;20014;-81
2023/01/10 07:12:06;;;;;;;0.10;0.10;;;;;;;6.70;100.00;98918.81;7386632;19;20037;-82
2023/01/10 07:14:32;;;;;;;0.82;0.50;;;;;;;7.53;100.00;98912.88;7390503;19;20018;-81
2023/01/10 07:16:59;;;;;;;1.17;0.47;;;;;;;6.95;100.00;98904.50;7389037;19;20435;-82
2023/01/10 07:19:25;;;;;;;10.38;0.63;;;;;;;6.95;100.00;98890.66;7390221;19;20022;-82
2023/01/10 07:21:51;;;;;;;7.32;1.08;;;;;;;7.17;100.00;98895.84;7389216;19;20006;-81
2023/01/10 07:24:17;;;;;;;3.42;0.95;;;;;;;7.57;100.00;98879.44;7389642;19;20018;-82
2023/01/10 07:26:43;;;;;;;0.10;0.10;;;;;;;8.78;100.00;98880.41;7390153;19;20034;-82
2023/01/10 07:29:09;;;;;;;0.80;0.77;;;;;;;9.64;100.00;98866.38;7394476;19;20509;-82
2023/01/10 07:31:36;;;;;;;0.25;0.25;;;;;;;8.79;100.00;98859.72;7388912;19;20074;-82
2023/01/10 07:34:02;;;;;;;19.45;0.57;;;;;;;9.78;100.00;98836.91;7387546;19;20014;-82
2023/01/10 07:36:28;;;;;;;0.10;0.10;;;;;;;9.81;100.00;98833.16;7388728;19;20022;-81
2023/01/10 07:38:54;;;;;;;0.40;0.40;;;;;;;10.35;100.00;98826.41;7392156;19;20018;-80
2023/01/10 07:41:20;;;;;;;4.65;0.30;;;;;;;11.58;100.00;98810.72;7389282;19;20604;-83
2023/01/10 07:43:47;;;;;;;0.52;0.30;;;;;;;11.73;100.00;98814.03;7387975;19;20037;-82
2023/01/10 07:46:14;;;;;;;0.10;0.00;;;;;;;7.81;100.00;98804.47;7388791;19;20366;-82
2023/01/10 07:48:40;;;;;;;0.10;0.10;;;;;;;7.31;100.00;98798.16;7390871;19;20032;-82
2023/01/10 07:51:07;;;;;;;0.30;0.20;;;;;;;7.13;100.00;98790.81;7389570;19;20369;-82
2023/01/10 07:53:33;;;;;;;0.10;0.10;;;;;;;7.09;100.00;98786.72;7389845;19;20019;-82
2023/01/10 07:56:01;;;;;;;2.38;0.52;;;;;;;7.23;100.00;98778.41;7388058;19;20006;-82
2023/01/10 07:58:27;;;;;;;0.32;0.28;;;;;;;6.92;100.00;98786.44;7393050;19;20081;-83
2023/01/10 08:01:01;;;;;;;6.55;0.40;;;;;;;6.32;100.00;98773.00;7393565;19;20014;-82
2023/01/10 08:03:32;;;;;;;5.35;0.85;;;;;;;6.23;100.00;98769.53;7389403;19;20022;-83
2023/01/10 08:06:04;;;;;;;0.40;0.40;;;;;;;6.10;100.00;98759.50;7389136;19;20022;-80
2023/01/10 08:08:31;;;;;;;0.63;0.38;;;;;;;6.61;100.00;98750.91;7392140;19;20026;-85
2023/01/10 08:11:04;;;;;;;0.95;0.70;;;;;;;6.53;100.00;98740.69;7391118;19;20386;-83
2023/01/10 08:13:31;;;;;;;2.95;1.08;;;;;;;6.49;100.00;98743.66;7387914;19;20038;-83
2023/01/10 08:15:57;;;;;;;4.10;1.17;;;;;;;6.04;100.00;98733.72;7391347;19;20017;-82
2023/01/10 08:18:24;;;;;;;0.57;0.20;;;;;;;6.71;100.00;98723.94;7400092;19;20037;-82
2023/01/10 08:20:52;;;;;;;0.75;0.75;;;;;;;6.62;100.00;98712.97;7392620;19;20313;-83
2023/01/10 08:23:19;;;;;;;2.40;1.27;;;;;;;6.18;100.00;98706.59;7393299;19;20023;-81
2023/01/10 08:25:46;;;;;;;0.32;0.25;;;;;;;6.37;100.00;98702.44;7390483;19;20046;-84
2023/01/10 08:28:12;;;;;;;0.82;0.17;;;;;;;7.99;100.00;98698.88;7395000;19;20038;-82
2023/01/10 08:30:39;;;;;;;0.22;0.22;;;;;;;6.59;100.00;98684.25;7392610;19;20487;-82
2023/01/10 08:33:07;;;;;;;8.85;0.73;;;;;;;10.28;100.00;98670.31;7392610;19;20488;-85
2023/01/10 08:35:41;;;;;;;0.30;0.10;;;;;;;7.96;100.00;98672.91;7392056;19;20019;-84
2023/01/10 08:38:08;;;;;;;0.20;0.10;;;;;;;6.67;100.00;98670.81;7392718;19;20033;-84
2023/01/10 08:40:34;;;;;;;0.82;0.60;;;;;;;6.18;100.00;98678.97;7392253;19;20011;-82
2023/01/10 08:43:07;;;;;;;2.33;0.40;;;;;;;6.16;100.00;98668.38;7388915;19;20441;-83
2023/01/10 08:45:34;;;;;;;0.52;0.20;;;;;;;6.72;100.00;98662.59;7391861;19;20022;-84
2023/01/10 08:48:00;;;;;;;0.30;0.28;;;;;;;6.81;100.00;98653.41;7393721;19;20022;-84
2023/01/10 08:50:27;;;;;;;0.25;0.20;;;;;;;8.13;100.00;98642.56;7398760;19;20048;-84
2023/01/10 08:52:53;;;;;;;0.10;0.10;;;;;;;8.86;100.00;98626.09;7396885;19;20025;-84
2023/01/10 08:55:19;;;;;;;0.65;0.50;;;;;;;8.07;100.00;98622.34;7395193;19;20026;-83
2023/01/10 08:57:45;;;;;;;0.25;0.10;;;;;;;8.08;100.00;98610.00;7396281;19;20464;-83
2023/01/10 09:00:12;;;;;;;8.40;1.17;;;;;;;8.03;100.00;98600.41;7397173;19;20026;-82
2023/01/10 09:02:39;;;;;;;0.40;0.40;;;;;;;8.03;100.00;98594.09;7393033;19;20002;-84
2023/01/10 09:05:05;;;;;;;0.45;0.15;;;;;;;8.75;100.00;98592.72;7398761;19;20074;-82
2023/01/10 09:07:32;;;;;;;2.05;0.20;;;;;;;7.68;100.00;98585.91;7396996;19;20049;-83
2023/01/10 09:09:58;;;;;;;0.73;0.32;;;;;;;6.78;100.00;98571.38;7395156;19;20023;-81
2023/01/10 09:15:09;;;;;;;0.10;0.00;;;;;;;6.41;100.00;98575.84;7393928;19;20079;-82
2023/01/10 09:17:36;;;;;;;0.10;0.10;;;;;;;6.43;100.00;98567.81;7392591;19;20043;-82
2023/01/10 09:20:08;;;;;;;0.32;0.15;;;;;;;6.42;100.00;98580.13;7392599;19;20022;-84
2023/01/10 09:22:36;;;;;;;1.17;0.30;;;;;;;6.36;100.00;98562.69;7398070;19;20019;-84
2023/01/10 09:25:02;;;;;;;0.10;0.10;;;;;;;6.38;100.00;98560.97;7395825;19;20016;-85
2023/01/10 09:27:29;;;;;;;0.65;0.20;;;;;;;6.73;100.00;98564.53;7398090;19;20377;-84
2023/01/10 09:29:55;;;;;;;0.20;0.20;;;;;;;7.62;100.00;98544.25;7398182;19;20461;-84
2023/01/10 09:32:21;;;;;;;0.32;0.20;;;;;;;7.73;100.00;98545.66;7397199;19;20025;-83
2023/01/10 09:34:47;;;;;;;1.88;0.55;;;;;;;9.11;100.00;98519.75;7396625;19;20018;-85
2023/01/10 09:37:13;;;;;;;0.40;0.40;;;;;;;8.29;100.00;98525.53;7398062;19;20153;-86
2023/01/10 09:39:39;;;;;;;0.10;0.10;;;;;;;8.10;100.00;98519.53;7397509;19;20019;-86
2023/01/10 09:42:18;;;;;;;0.10;0.10;;;;;;;8.81;100.00;98526.16;7400691;19;20010;-84
2023/01/10 09:45:15;;;;;;;1.17;0.57;;;;;;;6.97;100.00;98522.09;7398781;19;20038;-85
2023/01/10 09:47:44;;;;;;;0.40;0.40;;;;;;;8.86;100.00;98509.50;7395295;19;20041;-84
2023/01/10 09:50:26;;;;;;;0.10;0.10;;;;;;;7.21;100.00;98509.53;7399416;19;20038;-85
2023/01/10 09:52:59;;;;;;;0.10;0.00;;;;;;;6.78;100.00;98519.56;7397932;19;20014;-86
2023/01/10 09:55:30;;;;;;;0.20;0.20;;;;;;;6.56;100.00;98499.16;7398915;19;20401;-84
2023/01/10 09:57:59;;;;;;;0.40;0.20;;;;;;;7.46;100.00;98485.91;7398734;19;20022;-83
2023/01/10 10:00:39;;;;;;;0.70;0.40;;;;;;;7.28;100.00;98483.44;7395450;19;20840;-83
2023/01/10 10:03:20;;;;;;;7.47;0.70;;;;;;;6.76;100.00;98465.94;7395136;19;20015;-83
2023/01/10 10:05:46;;;;;;;1.05;0.57;;;;;;;6.83;100.00;98473.84;7397326;19;20762;-83
2023/01/10 10:08:17;;;;;;;0.88;0.20;;;;;;;6.88;100.00;98462.09;7398778;19;20020;-83
2023/01/10 10:11:06;;;;;;;1.90;0.57;;;;;;;6.80;100.00;98469.28;7397679;19;20461;-83
2023/01/10 10:14:00;;;;;;;6.38;1.13;;;;;;;7.44;100.00;98466.25;7394695;19;20006;-83
2023/01/10 10:16:44;;;;;;;4.68;1.48;;;;;;;7.88;100.00;98457.63;7397000;19;20348;-84
2023/01/10 10:19:50;;;;;;;1.00;0.55;;;;;;;7.84;100.00;98448.75;7400218;19;20847;-83
2023/01/10 10:22:33;;;;;;;9.93;2.35;;;;;;;9.05;100.00;98449.53;7395578;19;20078;-83
2023/01/10 10:25:12;;;;;;;2.58;0.47;;;;;;;9.75;100.00;98418.09;7396927;19;20015;-83
2023/01/10 10:27:56;;;;;;;0.90;0.55;;;;;;;9.98;100.00;98433.56;7397485;19;20014;-84
2023/01/10 10:30:44;;;;;;;0.10;0.10;;;;;;;8.76;100.00;98424.94;7397838;19;20340;-86
2023/01/10 10:33:29;;;;;;;0.40;0.32;;;;;;;8.76;100.00;98415.84;7397635;19;20866;-84
2023/01/10 10:36:10;;;;;;;6.50;0.40;;;;;;;8.03;100.00;98411.13;7398835;19;20007;-85
2023/01/10 10:38:41;;;;;;;2.35;0.17;;;;;;;7.91;100.00;98417.81;7399823;19;20089;-82
2023/01/10 10:41:16;;;;;;;1.25;0.30;;;;;;;8.05;100.00;98422.47;7395374;19;20014;-83
2023/01/10 10:43:45;;;;;;;4.18;0.73;;;;;;;8.58;100.00;98419.78;7389566;19;20015;-82
2023/01/10 10:46:18;;;;;;;0.75;0.63;;;;;;;8.29;100.00;98400.72;7395199;19;20015;-85
2023/01/10 10:48:56;;;;;;;2.92;0.22;;;;;;;8.32;100.00;98394.19;7396784;19;20014;-82
2023/01/10 10:51:33;;;;;;;7.28;0.60;;;;;;;8.49;100.00;98388.75;7388967;19;20072;-81
2023/01/10 10:54:00;;;;;;;0.77;0.35;;;;;;;8.32;100.00;98385.84;7389075;19;20046;-81
2023/01/10 10:56:26;;;;;;;0.65;0.35;;;;;;;8.41;100.00;98369.00;7392345;19;20065;-81
2023/01/10 10:58:57;;;;;;;0.20;0.20;;;;;;;8.91;100.00;98367.22;7396137;19;20026;-81
2023/01/10 11:01:23;;;;;;;0.20;0.20;;;;;;;8.55;100.00;98354.22;7392371;19;20015;-82
2023/01/10 11:04:00;;;;;;;0.13;0.13;;;;;;;8.47;100.00;98361.47;7389220;19;20812;-82
2023/01/10 11:06:29;;;;;;;0.30;0.25;;;;;;;9.59;100.00;98352.16;7391374;19;20037;-82
2023/01/10 11:09:03;;;;;;;2.33;0.40;;;;;;;9.52;100.00;98352.66;7393955;19;20092;-82
2023/01/10 11:11:33;;;;;;;1.23;0.40;;;;;;;9.74;100.00;98355.44;7389946;19;20023;-82
2023/01/10 11:14:02;;;;;;;0.82;0.40;;;;;;;9.58;100.00;98345.06;7392820;19;20082;-82
2023/01/10 11:16:39;;;;;;;0.20;0.10;;;;;;;9.67;100.00;98336.50;7392673;19;20476;-83
2023/01/10 11:19:29;;;;;;;0.25;0.05;;;;;;;9.70;100.00;98330.66;7397465;19;20481;-82
2023/01/10 11:22:01;;;;;;;0.98;0.15;;;;;;;9.81;100.00;98322.31;7393316;19;20034;-82
2023/01/10 11:24:31;;;;;;;0.43;0.30;;;;;;;9.89;100.00;98319.78;7392892;19;20476;-82
2023/01/10 11:27:01;;;;;;;0.20;0.20;;;;;;;9.89;100.00;98320.56;7391341;19;20485;-84
2023/01/10 11:29:44;;;;;;;0.98;0.75;;;;;;;9.86;100.00;98309.69;7392208;19;20018;-84
2023/01/10 11:32:35;;;;;;;0.30;0.15;;;;;;;9.97;100.00;98298.53;7391612;19;20018;-81
2023/01/10 11:35:08;;;;;;;1.17;0.75;;;;;;;10.03;100.00;98279.81;7391293;19;20055;-83
2023/01/10 11:37:35;;;;;;;0.30;0.10;;;;;;;10.09;100.00;98282.59;7393515;19;20014;-82
2023/01/10 11:40:38;;;;;;;0.10;0.10;;;;;;;10.13;100.00;98283.88;7394194;19;20003;-85
2023/01/10 11:43:22;;;;;;;0.10;0.10;;;;;;;10.14;100.00;98285.38;7387784;19;20076;-82
2023/01/10 11:45:55;;;;;;;0.35;0.00;;;;;;;10.13;100.00;98277.53;7390494;19;20078;-83
2023/01/10 11:48:23;;;;;;;0.15;0.15;;;;;;;10.18;100.00;98257.31;7393082;19;20465;-82
2023/01/10 11:50:53;;;;;;;0.32;0.10;;;;;;;10.25;100.00;98254.72;7390662;19;20077;-82
2023/01/10 11:53:46;;;;;;;0.10;0.10;;;;;;;10.30;100.00;98248.41;7389504;19;20094;-82
2023/01/10 11:56:22;;;;;;;0.17;0.13;;;;;;;10.25;100.00;98246.38;7390641;19;20022;-82
2023/01/10 11:58:48;;;;;;;0.20;0.05;;;;;;;10.38;100.00;98232.66;7392649;19;20014;-82
2023/01/10 12:01:33;;;;;;;0.20;0.20;;;;;;;10.35;100.00;98233.69;7390934;19;20015;-83
2023/01/10 12:03:59;;;;;;;0.15;0.10;;;;;;;10.40;100.00;98209.88;7387990;19;20092;-83
2023/01/10 12:06:26;;;;;;;0.13;0.10;;;;;;;10.49;100.00;98209.59;7389643;19;20031;-82
2023/01/10 12:08:55;;;;;;;0.38;0.20;;;;;;;10.40;100.00;98195.97;7393621;19;20014;-83